Latest Weather Observations for Naracoorte

IDS60801

Issued at 12:02 pm CDT Saturday 28 February 2015 (issued every 30 minutes, with the page automatically refreshed every 10 minutes)

About weather observations | Map of weather stations | Latest weather observations for SA | Other Formats
Station Details ID: 026099 Name: NARACOORTE AERODROME Lat: -36.98 Lon: 140.73 Height: 49.72 m
Data from the previous 72 hours. | See also: Recent months at Naracoorte
Date/Time
CDT
Temp
°C
App
Temp
°C
Dew
Point
Rel
Hum
%
Delta-T
°C
Wind Press
QNH
hPa
Press
MSL
hPa
Rain
since 9 am
mm
Dir
 
Spd
km/h
Gust
km/h
Spd
kts
Gust
kts
28/12:00pm 34.2 26.9 10.1 23 14.0 NW 39 50 21 27 1002.8 1002.6 0.0
28/11:30am 32.6 26.2 9.4 24 13.2 NNW 33 44 18 24 1003.1 1002.9 0.0
28/11:00am 31.7 28.1 9.8 26 12.5 N 19 33 10 18 1003.4 1003.2 0.0
28/10:30am 29.8 25.4 10.4 30 11.1 NNE 24 35 13 19 1003.4 1003.2 0.0
28/10:00am 26.5 21.6 11.4 39 8.6 NNE 28 39 15 21 1003.4 1003.2 0.0
28/09:30am 25.1 22.0 12.3 45 7.4 NNE 20 28 11 15 1004.0 1003.8 0.0
28/09:00am 23.2 20.0 13.1 53 5.9 NE 22 30 12 16 1004.2 1004.0 0.0
28/08:30am 22.5 18.6 13.3 56 5.3 NE 26 37 14 20 1004.2 1004.0 0.0
28/08:00am 21.7 18.8 13.9 61 4.5 NE 22 32 12 17 1004.1 1003.9 0.0
28/07:30am 21.3 18.6 14.5 65 4.0 NE 22 24 12 13 1004.1 1003.9 0.0
28/07:00am 21.0 18.1 15.1 69 3.5 NE 24 30 13 16 1004.0 1003.8 0.0
28/06:30am 21.0 19.6 14.6 67 3.8 NE 15 24 8 13 1004.1 1003.9 0.0
28/06:00am 21.2 20.6 14.6 66 3.9 NE 11 13 6 7 1004.7 1004.5 0.0
28/05:30am 21.6 21.1 13.8 61 4.5 W 9 17 5 9 1005.1 1004.9 0.0
28/05:00am 21.6 19.0 13.8 61 4.5 NNE 20 26 11 14 1004.0 1003.8 0.0
28/04:30am 21.6 19.0 13.8 61 4.5 NNE 20 28 11 15 1004.3 1004.1 0.0
28/04:00am 21.3 18.8 14.0 63 4.2 NE 20 28 11 15 1004.2 1004.0 0.0
28/03:30am 20.7 18.3 14.4 67 3.7 NE 20 28 11 15 1005.1 1004.9 0.0
28/03:00am 21.0 18.7 14.2 65 4.0 NNE 19 26 10 14 1005.9 1005.7 0.0
28/02:30am 20.6 19.6 14.5 68 3.6 N 13 17 7 9 1006.4 1006.2 0.0
28/02:00am 20.3 19.3 14.7 70 3.3 NNE 13 15 7 8 1006.8 1006.6 0.0
28/01:30am 20.1 19.5 14.7 71 3.2 NE 11 15 6 8 1006.9 1006.7 0.0
28/01:00am 19.9 18.6 14.9 73 2.9 NE 15 20 8 11 1007.3 1007.1 0.0
28/12:30am 19.7 20.1 14.7 73 2.9 ENE 6 13 3 7 1007.7 1007.5 0.0
28/12:00am 19.5 18.7 15.0 75 2.6 ESE 13 19 7 10 1007.9 1007.7 0.0
 
Date/Time
CDT
Temp
°C
App
Temp
°C
Dew
Point
Rel
Hum
%
Delta-T
°C
Wind Press
QNH
hPa
Press
MSL
hPa
Rain
since 9 am
mm
Dir
 
Spd
km/h
Gust
km/h
Spd
kts
Gust
kts
27/11:30pm 19.2 18.4 15.1 77 2.4 ESE 13 17 7 9 1008.7 1008.5 0.0
27/11:00pm 18.5 18.5 15.2 81 1.9 SSE 9 13 5 7 1009.3 1009.2 0.0
27/10:30pm 19.2 19.5 14.9 76 2.5 SSE 7 9 4 5 1009.9 1009.8 0.0
27/10:00pm 19.8 19.6 14.6 72 3.0 SSE 9 11 5 6 1010.2 1010.1 0.0
27/09:30pm 19.8 18.8 14.6 72 3.0 SSE 13 17 7 9 1009.9 1009.8 0.0
27/09:00pm 19.8 17.5 14.6 72 3.0 SSE 20 24 11 13 1009.6 1009.5 0.0
27/08:30pm 20.1 17.5 14.9 72 3.1 S 22 28 12 15 1009.1 1009.0 0.0
27/08:00pm 20.7 18.4 14.6 68 3.6 S 20 24 11 13 1008.8 1008.6 0.0
27/07:30pm 21.7 17.8 14.4 63 4.3 SSE 28 35 15 19 1008.3 1008.1 0.0
27/07:00pm 23.8 22.1 14.8 57 5.4 SSE 17 22 9 12 1008.3 1008.1 0.0
27/06:30pm 24.5 22.8 14.6 54 5.9 SSE 17 20 9 11 1008.2 1008.0 0.0
27/06:00pm 25.4 22.1 13.9 49 6.8 SSE 24 30 13 16 1008.1 1007.9 0.0
27/05:30pm 27.4 24.7 13.0 41 8.5 SSE 19 24 10 13 1007.8 1007.6 0.0
27/05:00pm 27.9 25.5 12.7 39 8.9 SSE 17 24 9 13 1007.6 1007.4 0.0
27/04:30pm 28.4 27.7 11.5 35 9.8 SSW 6 13 3 7 1007.5 1007.3 0.0
27/04:00pm 28.1 27.3 11.6 36 9.5 SSW 7 17 4 9 1007.6 1007.4 0.0
27/03:30pm 28.3 27.5 11.8 36 9.6 SSE 7 17 4 9 1007.6 1007.4 0.0
27/03:00pm 27.9 28.0 11.5 36 9.4 N 2 9 1 5 1007.9 1007.7 0.0
27/02:30pm 28.4 27.9 11.9 36 9.6 NNE 6 15 3 8 1008.4 1008.2 0.0
27/02:00pm 27.3 27.0 11.3 37 9.1 N 4 13 2 7 1009.1 1009.0 0.0
27/01:30pm 26.7 26.7 12.4 41 8.3 ESE 4 17 2 9 1009.3 1009.2 0.0
27/01:00pm 26.0 26.1 12.8 44 7.7 SW 4 15 2 8 1009.6 1009.5 0.0
27/12:30pm 25.9 25.7 13.1 45 7.5 NNE 6 11 3 6 1010.0 1009.9 0.0
27/12:00pm 24.6 24.8 13.2 49 6.6 NNE 4 13 2 7 1010.2 1010.1 0.0
27/11:30am 23.6 23.2 12.9 51 6.2 NE 7 13 4 7 1010.8 1010.7 0.0
27/11:00am 22.7 21.9 12.9 54 5.6 NW 9 17 5 9 1011.5 1011.4 0.0
27/10:30am 22.2 22.4 13.0 56 5.3 NE 4 13 2 7 1011.5 1011.4 0.0
27/10:00am 20.9 20.6 13.4 62 4.3 ENE 7 13 4 7 1011.4 1011.3 0.0
27/09:30am 19.8 18.5 13.7 68 3.5 NNE 13 17 7 9 1011.6 1011.5 0.0
27/09:00am 18.4 16.9 14.3 77 2.4 ENE 15 22 8 12 1011.2 1011.1 0.0
27/08:30am 17.2 17.5 14.5 84 1.6 NE 6 13 3 7 1011.3 1011.2 0.0
27/08:00am 13.9 14.7 12.6 92 0.7 CALM 0 0 0 0 1011.4 1011.3 0.0
27/07:30am 11.8 12.1 10.9 94 0.5 CALM 0 6 0 3 1011.0 1010.9 0.0
27/07:00am 10.0 9.4 9.1 94 0.4 E 2 7 1 4 1010.8 1010.7 0.0
27/06:30am 10.4 10.3 9.5 94 0.5 CALM 0 0 0 0 1010.7 1010.6 0.0
27/06:00am 10.3 9.1 9.4 94 0.5 ESE 6 7 3 4 1010.4 1010.3 0.0
27/05:30am 9.5 8.8 8.6 94 0.4 SSE 2 7 1 4 1010.4 1010.3 0.0
27/05:00am 9.9 9.6 8.8 93 0.5 CALM 0 0 0 0 1010.3 1010.2 0.0
27/04:30am 10.1 9.9 9.0 93 0.5 CALM 0 6 0 3 1010.2 1010.1 0.0
27/04:00am 11.7 12.0 10.8 94 0.5 CALM 0 0 0 0 1010.3 1010.2 0.0
27/03:30am 13.5 13.0 12.7 95 0.4 E 7 9 4 5 1010.4 1010.3 0.0
27/03:00am 12.3 11.5 11.2 93 0.6 SE 6 7 3 4 1010.8 1010.7 0.0
27/02:30am 12.3 11.5 11.2 93 0.6 SSE 6 7 3 4 1010.9 1010.8 0.0
27/02:00am 13.2 12.1 12.1 93 0.6 ESE 9 9 5 5 1010.9 1010.8 0.0
27/01:30am 13.1 12.6 12.0 93 0.6 SSE 6 9 3 5 1011.6 1011.5 0.0
27/01:00am 13.4 12.3 12.0 91 0.8 S 9 11 5 6 1012.0 1011.9 0.0
27/12:30am 14.8 14.1 13.2 90 0.9 SSE 9 11 5 6 1012.0 1011.9 0.0
27/12:00am 15.2 14.3 13.6 90 0.9 SSE 11 15 6 8 1012.4 1012.3 0.0
 
Date/Time
CDT
Temp
°C
App
Temp
°C
Dew
Point
Rel
Hum
%
Delta-T
°C
Wind Press
QNH
hPa
Press
MSL
hPa
Rain
since 9 am
mm
Dir
 
Spd
km/h
Gust
km/h
Spd
kts
Gust
kts
26/11:30pm 14.8 13.6 12.8 88 1.1 SSE 11 13 6 7 1012.1 1012.0 0.0
26/11:00pm 15.6 13.8 13.4 87 1.2 S 15 17 8 9 1012.3 1012.2 0.0
26/10:30pm 15.6 13.9 12.4 81 1.8 SSE 13 17 7 9 1011.9 1011.8 0.0
26/10:00pm 16.2 13.8 12.7 80 1.9 SSW 17 19 9 10 1011.9 1011.8 0.0
26/09:30pm 17.2 15.1 12.5 74 2.6 S 15 17 8 9 1011.6 1011.5 0.0
26/09:00pm 18.1 15.9 12.1 68 3.3 SSW 15 17 8 9 1011.3 1011.2 0.0
26/08:30pm 19.7 16.9 12.5 63 4.1 SSW 19 20 10 11 1011.1 1011.0 0.0
26/08:00pm 20.9 18.0 12.3 58 4.8 SSW 19 22 10 12 1010.6 1010.5 0.0
26/07:30pm 22.9 19.3 11.9 50 6.2 SW 22 28 12 15 1010.3 1010.2 0.0
26/07:00pm 24.5 20.0 11.5 44 7.4 SW 26 32 14 17 1010.1 1010.0 0.0
26/06:30pm 25.8 21.8 11.9 42 8.0 SW 24 32 13 17 1009.7 1009.6 0.0
26/06:00pm 26.5 22.5 11.8 40 8.4 WSW 24 33 13 18 1009.4 1009.3 0.0
26/05:30pm 26.8 23.4 11.3 38 8.8 SW 20 28 11 15 1009.3 1009.2 0.0
26/05:00pm 27.1 23.5 12.0 39 8.7 SW 22 32 12 17 1009.3 1009.2 0.0
26/04:30pm 27.7 24.7 12.5 39 8.9 SW 20 32 11 17 1009.4 1009.3 0.0
26/04:00pm 27.6 24.3 12.8 40 8.7 WSW 22 30 12 16 1009.5 1009.4 0.0
26/03:30pm 27.4 24.5 13.0 41 8.5 SSW 20 32 11 17 1009.9 1009.8 0.0
26/03:00pm 26.7 24.2 12.4 41 8.3 SSW 17 30 9 16 1010.2 1010.1 0.0
26/02:30pm 26.2 24.2 11.5 40 8.4 WSW 13 22 7 12 1010.6 1010.5 0.0
26/02:00pm 26.7 24.1 12.0 40 8.5 SW 17 28 9 15 1010.9 1010.8 0.0
26/01:30pm 25.4 23.7 11.2 41 8.0 W 11 22 6 12 1011.2 1011.1 0.0
26/01:00pm 25.1 23.3 10.9 41 8.0 W 11 19 6 10 1011.6 1011.5 0.0
26/12:30pm 24.3 22.3 10.2 41 7.8 SW 11 20 6 11 1011.9 1011.8 0.0
26/12:00pm 24.3 22.2 9.8 40 8.0 WSW 11 20 6 11 1012.2 1012.1 0.0
26/11:30am 22.7 20.6 8.4 40 7.6 SSW 9 17 5 9 1012.4 1012.3 0.0
26/11:00am 22.0 19.4 9.5 45 6.7 S 13 24 7 13 1012.8 1012.7 0.0
26/10:30am 20.8 18.2 10.6 52 5.6 SSW 15 24 8 13 1013.0 1012.9 0.0
26/10:00am 19.8 16.8 10.8 56 4.9 S 17 24 9 13 1013.0 1012.9 0.0
26/09:30am 18.8 16.6 12.1 65 3.7 S 15 19 8 10 1012.8 1012.7 0.0
26/09:00am 17.8 16.3 13.1 74 2.6 SSW 13 19 7 10 1012.8 1012.7 0.0
26/08:30am 16.7 15.3 13.4 81 1.9 SSW 13 17 7 9 1012.5 1012.4 0.0
26/08:00am 15.4 14.8 13.6 89 1.0 SW 9 11 5 6 1012.2 1012.1 0.0
26/07:30am 13.6 12.6 12.3 92 0.7 SW 9 11 5 6 1012.0 1011.9 0.0
26/07:00am 13.6 11.9 12.3 92 0.7 SW 13 17 7 9 1011.7 1011.6 0.0
26/06:30am 14.3 15.0 12.2 87 1.1 CALM 0 0 0 0 1011.2 1011.1 0.0
26/06:00am 15.5 14.5 13.3 87 1.2 SSW 11 17 6 9 1011.1 1011.0 0.0
26/05:30am 15.6 13.8 13.3 86 1.3 SW 15 22 8 12 1011.4 1011.3 0.0
26/05:00am 15.7 16.8 13.5 87 1.2 CALM 0 0 0 0 1010.1 1010.0 0.0
26/04:30am 15.5 16.5 13.3 87 1.2 CALM 0 0 0 0 1009.9 1009.8 0.0
26/04:00am 15.5 15.4 13.3 87 1.2 SW 6 9 3 5 1010.6 1010.5 0.0
26/03:30am 15.6 15.0 13.6 88 1.1 S 9 11 5 6 1010.8 1010.7 0.0
26/03:00am 15.9 14.2 13.7 87 1.2 SSW 15 19 8 10 1011.5 1011.4 0.0
26/02:30am 14.9 13.7 12.9 88 1.1 SW 11 15 6 8 1011.7 1011.6 0.0
26/02:00am 14.8 14.5 12.8 88 1.1 S 6 7 3 4 1011.1 1011.0 0.0
26/01:30am 14.5 14.0 12.5 88 1.1 SE 7 9 4 5 1011.3 1011.2 0.0
26/01:00am 14.4 13.5 12.6 89 1.0 SSE 9 11 5 6 1011.8 1011.7 0.0
26/12:30am 13.0 12.0 10.9 87 1.1 SSE 7 9 4 5 1012.2 1012.1 0.0
26/12:00am 12.8 11.8 10.2 84 1.3 S 6 9 3 5 1012.6 1012.5 0.0
 
Date/Time
CDT
Temp
°C
App
Temp
°C
Dew
Point
Rel
Hum
%
Delta-T
°C
Wind Press
QNH
hPa
Press
MSL
hPa
Rain
since 9 am
mm
Dir
 
Spd
km/h
Gust
km/h
Spd
kts
Gust
kts
25/11:30pm 13.4 11.2 10.8 84 1.4 SSW 13 15 7 8 1012.8 1012.7 0.0
25/11:00pm 14.0 11.9 11.3 84 1.4 SSW 13 13 7 7 1013.0 1012.9 0.0
25/10:30pm 15.4 13.5 11.8 79 2.0 SSW 13 13 7 7 1013.0 1012.9 0.0
25/10:00pm 16.5 14.7 12.1 75 2.4 SSW 13 17 7 9 1013.1 1013.0 0.0
25/09:30pm 17.9 16.1 12.1 69 3.2 SSW 13 17 7 9 1012.9 1012.8 0.0
25/09:00pm 18.4 16.6 12.2 67 3.4 SW 13 19 7 10 1012.6 1012.5 0.0
25/08:30pm 19.8 17.3 12.3 62 4.2 SSW 17 22 9 12 1012.2 1012.1 0.0
25/08:00pm 20.8 19.0 12.0 57 4.9 SSW 13 17 7 9 1011.7 1011.6 0.0
25/07:30pm 22.7 18.8 12.0 50 6.1 SW 24 28 13 15 1011.3 1011.2 0.0
25/07:00pm 24.7 19.6 12.0 45 7.3 SW 30 37 16 20 1011.3 1011.2 0.0
25/06:30pm 25.7 22.9 9.9 37 8.8 S 15 22 8 12 1010.8 1010.7 0.0
25/06:00pm 26.7 23.2 8.6 32 9.9 SSW 17 24 9 13 1011.0 1010.9 0.0
25/05:30pm 26.7 23.9 8.6 32 9.9 SSW 13 20 7 11 1011.1 1011.0 0.0
25/05:00pm 26.8 23.4 7.8 30 10.2 SSW 15 24 8 13 1011.3 1011.2 0.0
25/04:30pm 26.5 23.7 8.5 32 9.8 S 13 20 7 11 1011.6 1011.5 0.0
25/04:00pm 26.1 22.6 8.6 33 9.5 SSW 17 28 9 15 1012.1 1012.0 0.0
25/03:30pm 26.7 23.3 9.1 33 9.7 S 17 28 9 15 1012.5 1012.4 0.0
25/03:00pm 25.2 22.8 8.7 35 8.9 SSW 11 20 6 11 1013.0 1012.9 0.0
25/02:30pm 24.9 22.5 8.8 36 8.7 SSE 11 22 6 12 1013.6 1013.5 0.0
25/02:00pm 24.2 22.0 9.4 39 8.1 SSW 11 22 6 12 1014.1 1014.0 0.0
25/01:30pm 23.6 21.8 9.6 41 7.6 SSW 9 20 5 11 1014.3 1014.2 0.0
25/01:00pm 23.3 20.7 10.7 45 7.0 SSW 15 22 8 12 1015.2 1015.1 0.0
25/12:30pm 23.0 21.2 10.8 46 6.8 SSE 11 22 6 12 1015.6 1015.5 0.0

Other Formats:

Comma delimited format used in spreadsheet applications
http://www.bom.gov.au/fwo/IDS60801/IDS60801.94820.axf

JavaScript Object Notation format (JSON) in row-major order
http://www.bom.gov.au/fwo/IDS60801/IDS60801.94820.json